Time;durP1;ratioP1;P1;durP2;ratioP2;P2;SDS_P1;SDS_P2;PMS_P1;PMS_P2;Temp;Humidity;BMP_temperature;BMP_pressure;BME280_temperature;BME280_humidity;BME280_pressure;Samples;Min_cycle;Max_cycle;Signal;HPM_P1;HPM_P2
2023/01/29 00:01:47;;;;;;;55.03;28.65;;;77.00;2227.20;;;;;;5050556;28;20097;-57
2023/01/29 00:04:13;;;;;;;51.60;28.55;;;77.10;2227.20;;;;;;5050182;28;20417;-57
2023/01/29 00:06:39;;;;;;;45.95;25.70;;;77.10;2227.20;;;;;;5050100;28;20033;-58
2023/01/29 00:09:05;;;;;;;48.45;27.85;;;77.00;2227.20;;;;;;5049845;28;20036;-57
2023/01/29 00:11:30;;;;;;;57.53;30.48;;;77.00;2227.20;;;;;;5050045;28;20068;-57
2023/01/29 00:13:57;;;;;;;56.67;31.45;;;77.10;2227.20;;;;;;5050177;28;20056;-56
2023/01/29 00:16:23;;;;;;;54.97;30.58;;;77.00;2227.20;;;;;;5049368;28;20041;-56
2023/01/29 00:18:49;;;;;;;112.07;56.25;;;76.90;2227.20;;;;;;5049709;28;20025;-66
2023/01/29 00:21:17;;;;;;;90.80;50.03;;;76.90;2227.20;;;;;;5049782;28;20086;-60
2023/01/29 00:23:43;;;;;;;77.47;36.90;;;77.00;2227.20;;;;;;5049216;28;20029;-57
2023/01/29 00:26:10;;;;;;;59.65;31.95;;;76.90;2227.20;;;;;;5050175;28;20033;-58
2023/01/29 00:28:36;;;;;;;56.25;26.30;;;77.00;2227.20;;;;;;5050253;28;20029;-57
2023/01/29 00:31:12;;;;;;;50.67;25.58;;;77.00;2227.20;;;;;;5049704;28;20600;-58
2023/01/29 00:33:38;;;;;;;59.63;32.08;;;76.90;2227.20;;;;;;5050228;28;20075;-58
2023/01/29 00:36:09;;;;;;;56.95;29.92;;;77.00;2227.20;;;;;;5049549;28;20041;-57
2023/01/29 00:38:35;;;;;;;91.90;48.97;;;77.10;2227.20;;;;;;5050221;28;20167;-57
2023/01/29 00:46:50;;;;;;;55.25;29.65;;;77.30;2227.20;;;;;;5049949;28;20064;-58
2023/01/29 00:49:16;;;;;;;50.60;25.67;;;77.20;2227.20;;;;;;5049579;28;20399;-61
2023/01/29 00:51:41;;;;;;;57.53;30.17;;;77.00;2227.20;;;;;;5049522;28;20076;-67
2023/01/29 00:54:07;;;;;;;48.55;25.75;;;77.20;2227.20;;;;;;5049689;28;20033;-57
2023/01/29 00:56:35;;;;;;;48.53;26.77;;;77.20;2227.20;;;;;;5049740;28;20039;-62
2023/01/29 00:59:01;;;;;;;79.60;40.30;;;77.00;2227.20;;;;;;5049722;28;20025;-58
2023/01/29 01:04:11;;;;;;;60.22;33.08;;;77.00;2227.20;;;;;;5049745;28;20064;-57
2023/01/29 01:06:38;;;;;;;128.70;60.75;;;77.00;2227.20;;;;;;5048781;28;20033;-57
2023/01/29 01:11:50;;;;;;;46.33;26.75;;;76.90;2227.20;;;;;;5049649;28;20379;-57
2023/01/29 01:14:17;;;;;;;47.50;27.52;;;76.80;2227.20;;;;;;5049263;28;20032;-57
2023/01/29 01:16:45;;;;;;;52.03;27.80;;;76.90;2227.20;;;;;;5049078;28;20049;-57
2023/01/29 01:19:11;;;;;;;60.42;30.55;;;76.90;2227.20;;;;;;5049127;28;20060;-58
2023/01/29 01:21:37;;;;;;;46.03;26.50;;;76.90;2227.20;;;;;;5048751;28;20037;-59
2023/01/29 01:24:04;;;;;;;68.38;33.92;;;76.90;2227.20;;;;;;5049245;28;20094;-56
2023/01/29 01:26:33;;;;;;;51.17;27.63;;;77.00;2227.20;;;;;;5049218;28;20529;-58
2023/01/29 01:28:58;;;;;;;51.40;26.85;;;77.00;2227.20;;;;;;5048569;28;20100;-59
2023/01/29 01:31:24;;;;;;;56.63;29.33;;;77.10;2227.20;;;;;;5049225;28;20432;-57
2023/01/29 01:33:50;;;;;;;47.15;25.30;;;77.20;2227.20;;;;;;5048726;28;20033;-57
2023/01/29 01:36:17;;;;;;;41.67;24.65;;;77.20;2227.20;;;;;;5048861;28;20036;-57
2023/01/29 01:38:43;;;;;;;51.28;26.83;;;77.20;2227.20;;;;;;5048764;28;20112;-57
2023/01/29 01:41:13;;;;;;;47.47;24.33;;;77.10;2227.20;;;;;;5048674;28;20029;-58
2023/01/29 01:44:00;;;;;;;43.70;24.27;;;77.10;2227.20;;;;;;5050832;28;20021;-57
2023/01/29 01:46:31;;;;;;;45.75;25.15;;;77.00;2227.20;;;;;;5050810;28;20415;-63
2023/01/29 01:49:02;;;;;;;45.80;25.38;;;76.90;2227.20;;;;;;5051088;28;20041;-66
2023/01/29 01:51:30;;;;;;;88.00;41.15;;;76.90;2227.20;;;;;;5050722;28;20486;-58
2023/01/29 01:54:04;;;;;;;100.47;50.70;;;76.90;2227.20;;;;;;5051034;28;20036;-65
2023/01/29 01:56:39;;;;;;;54.92;26.33;;;77.10;2227.20;;;;;;5050124;28;20041;-57
2023/01/29 01:59:08;;;;;;;61.97;32.13;;;76.90;2227.20;;;;;;5050609;28;20025;-56
2023/01/29 02:01:34;;;;;;;49.17;25.35;;;76.80;2227.20;;;;;;5050460;28;20112;-65
2023/01/29 02:10:20;;;;;;;48.40;27.50;;;77.10;2227.20;;;;;;5050537;28;20067;-57
2023/01/29 02:12:46;;;;;;;73.60;37.08;;;77.00;2227.20;;;;;;5048070;28;20496;-56
2023/01/29 02:15:12;;;;;;;63.33;31.38;;;76.90;2227.20;;;;;;5050075;28;20037;-57
2023/01/29 02:17:38;;;;;;;96.38;47.50;;;76.90;2227.20;;;;;;5050461;28;20103;-56
2023/01/29 02:20:31;;;;;;;125.28;56.35;;;77.00;2227.20;;;;;;5032623;28;20443;-57
2023/01/29 02:23:11;;;;;;;72.65;37.75;;;77.10;2227.20;;;;;;5047322;28;20387;-63
2023/01/29 02:25:49;;;;;;;95.95;48.45;;;77.10;2227.20;;;;;;5050468;28;20105;-64
2023/01/29 02:28:28;;;;;;;83.15;37.70;;;77.20;2227.20;;;;;;5050387;28;20029;-67
2023/01/29 02:31:16;;;;;;;86.00;35.83;;;77.00;2227.20;;;;;;5050488;28;20079;-68
2023/01/29 02:34:23;;;;;;;45.85;22.73;;;77.00;2227.20;;;;;;5050304;28;20029;-58
2023/01/29 02:37:10;;;;;;;62.60;30.33;;;76.90;2227.20;;;;;;4988456;28;20035;-60
2023/01/29 02:39:59;;;;;;;50.83;25.27;;;76.80;2227.20;;;;;;4988795;28;20085;-58
2023/01/29 02:42:37;;;;;;;54.83;29.30;;;76.80;2227.20;;;;;;4989004;28;20550;-61
2023/01/29 02:45:11;;;;;;;50.47;26.60;;;76.80;2227.20;;;;;;4973849;28;20046;-63
2023/01/29 02:47:39;;;;;;;98.53;48.28;;;52.10;2227.20;;;;;;5000606;28;20117;-58
2023/01/29 02:50:17;;;;;;;49.42;27.85;;;76.80;2227.20;;;;;;5008553;28;20373;-58
2023/01/29 02:53:07;;;;;;;69.07;34.20;;;77.20;2227.20;;;;;;5007914;28;20064;-66
2023/01/29 02:55:32;;;;;;;48.75;25.75;;;76.90;2227.20;;;;;;5008033;28;20062;-57
2023/01/29 02:58:26;;;;;;;56.45;26.92;;;52.10;2227.20;;;;;;5008325;28;20129;-69
2023/01/29 03:00:53;;;;;;;40.72;23.52;;;52.10;2227.20;;;;;;5008026;28;20113;-57
2023/01/29 03:03:34;;;;;;;71.43;36.95;;;52.10;2227.20;;;;;;5008291;28;20037;-57
2023/01/29 03:06:18;;;;;;;54.35;27.30;;;52.10;2227.20;;;;;;5008039;28;20511;-62
2023/01/29 03:08:54;;;;;;;57.05;26.83;;;52.10;2227.20;;;;;;5049822;28;20029;-57
2023/01/29 03:11:20;;;;;;;68.35;32.63;;;76.80;2227.20;;;;;;5049683;28;20048;-58
2023/01/29 03:13:48;;;;;;;57.13;25.42;;;76.90;2227.20;;;;;;5050030;28;20054;-64
2023/01/29 03:16:21;;;;;;;146.25;73.75;;;76.90;2227.20;;;;;;5049624;28;20029;-57
2023/01/29 03:19:35;;;;;;;46.22;27.02;;;76.90;2227.20;;;;;;5050115;28;20025;-63
2023/01/29 03:22:03;;;;;;;52.03;27.80;;;76.90;2227.20;;;;;;5047991;28;20475;-57
2023/01/29 03:33:05;;;;;;;49.38;24.88;;;76.80;2227.20;;;;;;5053691;28;20067;-57
2023/01/29 03:35:36;;;;;;;45.10;25.48;;;76.80;2227.20;;;;;;5053252;28;20400;-58
2023/01/29 03:38:08;;;;;;;46.78;24.42;;;77.00;2227.20;;;;;;5053218;28;20021;-59
2023/01/29 03:40:52;;;;;;;47.47;24.17;;;76.90;2227.20;;;;;;5053700;28;20036;-62
2023/01/29 03:43:46;;;;;;;44.97;25.42;;;76.80;2227.20;;;;;;5053556;28;20033;-58
2023/01/29 03:46:18;;;;;;;53.58;24.83;;;76.90;2227.20;;;;;;5048684;28;20525;-65
2023/01/29 03:49:01;;;;;;;59.80;30.10;;;76.80;2227.20;;;;;;5033237;28;20030;-57
2023/01/29 03:51:57;;;;;;;46.00;24.13;;;76.90;2227.20;;;;;;5032876;28;20056;-57
2023/01/29 03:54:34;;;;;;;54.53;27.33;;;52.00;2227.20;;;;;;5032921;28;20068;-62
2023/01/29 03:57:14;;;;;;;51.78;25.55;;;76.80;2227.20;;;;;;5033127;28;20033;-59
2023/01/29 03:59:59;;;;;;;51.80;27.85;;;52.10;2227.20;;;;;;5032991;28;20033;-58
2023/01/29 04:02:41;;;;;;;57.70;32.50;;;76.80;2227.20;;;;;;5033168;28;20026;-57
2023/01/29 04:05:14;;;;;;;43.53;25.67;;;76.80;2227.20;;;;;;5032921;28;20032;-57
2023/01/29 04:07:42;;;;;;;46.25;26.33;;;77.00;2227.20;;;;;;5032586;28;20029;-57
2023/01/29 04:10:21;;;;;;;47.63;26.40;;;76.90;2227.20;;;;;;5033058;28;20037;-57
2023/01/29 04:12:57;;;;;;;51.80;28.17;;;76.90;2227.20;;;;;;5032933;28;20044;-56
2023/01/29 04:15:27;;;;;;;52.08;31.55;;;76.90;2227.20;;;;;;5032511;28;20022;-57
2023/01/29 04:17:55;;;;;;;58.80;33.33;;;76.80;2227.20;;;;;;5032616;28;20026;-63
2023/01/29 04:20:22;;;;;;;44.72;26.75;;;76.80;2227.20;;;;;;5032529;28;20022;-58
2023/01/29 04:22:51;;;;;;;51.00;26.77;;;76.80;2227.20;;;;;;5032420;28;20116;-57
2023/01/29 04:25:27;;;;;;;66.68;39.97;;;76.90;2227.20;;;;;;5032782;28;20040;-57
2023/01/29 04:28:00;;;;;;;49.03;25.23;;;77.00;2227.20;;;;;;5032312;28;20025;-57
2023/01/29 04:30:39;;;;;;;48.97;24.00;;;76.90;2227.20;;;;;;5032472;28;20032;-57
2023/01/29 04:33:26;;;;;;;56.85;29.25;;;76.90;2227.20;;;;;;5032504;28;20104;-57
2023/01/29 04:35:58;;;;;;;51.75;26.48;;;76.90;2227.20;;;;;;5032245;28;20029;-57
2023/01/29 04:38:42;;;;;;;42.45;23.17;;;77.00;2227.20;;;;;;5032200;28;20021;-58
2023/01/29 04:41:34;;;;;;;55.17;28.98;;;77.10;2227.20;;;;;;5031299;28;20108;-69
2023/01/29 04:44:08;;;;;;;48.85;23.85;;;77.00;2227.20;;;;;;5032132;28;20083;-64
2023/01/29 04:46:49;;;;;;;46.35;23.55;;;77.00;2227.20;;;;;;5031967;28;20395;-66
2023/01/29 04:49:22;;;;;;;49.30;26.17;;;76.90;2227.20;;;;;;5032065;28;20029;-58
2023/01/29 04:52:06;;;;;;;41.00;20.60;;;52.10;2227.20;;;;;;5032204;28;20036;-57
2023/01/29 04:54:44;;;;;;;50.15;25.65;;;76.80;2227.20;;;;;;5031872;28;20071;-58
2023/01/29 04:57:24;;;;;;;54.28;26.67;;;76.90;2227.20;;;;;;5031729;28;20033;-61
2023/01/29 05:00:19;;;;;;;53.33;28.85;;;76.80;2227.20;;;;;;5031805;28;20483;-58
2023/01/29 05:02:46;;;;;;;47.22;25.77;;;76.80;2227.20;;;;;;4951832;29;20042;-58
2023/01/29 05:05:14;;;;;;;50.90;26.00;;;77.10;2227.20;;;;;;4951497;29;20055;-57
2023/01/29 05:07:42;;;;;;;50.03;26.73;;;76.90;2227.20;;;;;;4951293;29;20046;-58
2023/01/29 05:10:09;;;;;;;48.90;26.98;;;;;;;;;;4951709;29;20031;-57
2023/01/29 05:12:36;;;;;;;56.45;28.48;;;77.10;2227.20;;;;;;4951508;29;20031;-58
2023/01/29 05:15:08;;;;;;;51.55;28.23;;;77.10;2227.20;;;;;;4951074;29;20123;-57
2023/01/29 05:17:33;;;;;;;52.08;27.15;;;77.10;2227.20;;;;;;4951228;29;20508;-58
2023/01/29 05:19:59;;;;;;;56.85;29.13;;;77.00;2227.20;;;;;;4951483;29;20063;-62
2023/01/29 05:22:26;;;;;;;54.35;30.02;;;77.00;2227.20;;;;;;4951198;29;20469;-57
2023/01/29 05:24:51;;;;;;;48.78;25.73;;;76.90;2227.20;;;;;;4951133;29;20438;-58
2023/01/29 05:30:11;;;;;;;44.67;19.85;;;76.90;2227.20;;;;;;4951549;29;20106;-68
2023/01/29 05:32:38;;;;;;;54.58;26.63;;;76.90;2227.20;;;;;;4951172;29;20504;-58
2023/01/29 05:35:04;;;;;;;51.75;28.70;;;77.10;2227.20;;;;;;4951043;29;20180;-58
2023/01/29 05:37:31;;;;;;;52.35;28.88;;;;;;;;;;4950897;29;20118;-57
2023/01/29 05:39:57;;;;;;;54.75;28.20;;;;;;;;;;5001799;28;20040;-57
2023/01/29 05:42:23;;;;;;;45.83;25.77;;;;;;;;;;5030950;28;20080;-56
2023/01/29 05:44:49;;;;;;;47.05;24.92;;;;;;;;;;5031346;28;20030;-64
2023/01/29 05:47:18;;;;;;;43.63;23.52;;;;;;;;;;5031154;28;20034;-57
2023/01/29 05:49:44;;;;;;;50.25;27.10;;;;;;;;;;5031044;28;20026;-58
2023/01/29 05:52:10;;;;;;;55.40;29.05;;;;;;;;;;5030375;28;20026;-58
2023/01/29 05:54:36;;;;;;;52.95;25.23;;;;;;;;;;5030821;28;20208;-60
2023/01/29 05:57:02;;;;;;;52.75;26.65;;;;;;;;;;5030519;28;20030;-57
2023/01/29 05:59:30;;;;;;;46.95;26.45;;;;;;;;;;5030866;28;20462;-58
2023/01/29 06:01:56;;;;;;;49.15;27.73;;;;;;;;;;5030970;28;20029;-56
2023/01/29 06:04:22;;;;;;;50.33;27.95;;;;;;;;;;5030728;28;20076;-57
2023/01/29 06:06:48;;;;;;;60.58;31.30;;;;;;;;;;5030640;28;20028;-57
2023/01/29 06:09:14;;;;;;;51.88;25.92;;;;;;;;;;5030722;28;20044;-57
2023/01/29 06:11:40;;;;;;;40.47;22.92;;;;;;;;;;5030577;28;20028;-58
2023/01/29 06:14:06;;;;;;;60.28;37.08;;;;;;;;;;5030598;28;20547;-57
2023/01/29 06:16:32;;;;;;;50.60;28.40;;;;;;;;;;5030542;28;20029;-57
2023/01/29 06:18:58;;;;;;;50.72;25.23;;;;;;;;;;5030629;28;20021;-67
2023/01/29 06:21:24;;;;;;;45.70;26.38;;;52.10;2227.20;;;;;;5030465;28;20025;-58
2023/01/29 06:23:52;;;;;;;50.38;28.60;;;52.10;2227.20;;;;;;5030314;28;20083;-64
2023/01/29 06:26:18;;;;;;;54.17;29.65;;;52.10;2227.20;;;;;;5030626;28;20464;-57
2023/01/29 06:28:47;;;;;;;48.97;25.60;;;76.80;2227.20;;;;;;5030779;28;20029;-57
2023/01/29 06:31:13;;;;;;;41.35;23.75;;;52.10;2227.20;;;;;;5030377;28;20021;-57
2023/01/29 06:33:38;;;;;;;58.60;32.45;;;52.10;2227.20;;;;;;5030459;28;20036;-58
2023/01/29 06:36:05;;;;;;;48.40;29.63;;;52.10;2227.20;;;;;;5030415;28;20383;-65
2023/01/29 06:38:31;;;;;;;57.63;34.47;;;76.80;2227.20;;;;;;5029962;28;20025;-58
2023/01/29 06:40:57;;;;;;;55.55;32.15;;;76.80;2227.20;;;;;;5030701;28;20029;-57
2023/01/29 06:43:23;;;;;;;53.60;29.65;;;;;;;;;;5030447;28;20029;-66
2023/01/29 06:45:50;;;;;;;80.05;46.22;;;;;;;;;;5030098;28;20026;-58
2023/01/29 06:48:16;;;;;;;56.88;31.42;;;52.10;2227.20;;;;;;5030385;28;20125;-58
2023/01/29 06:50:43;;;;;;;60.53;40.92;;;52.10;2227.20;;;;;;5030164;28;20032;-58
2023/01/29 06:53:09;;;;;;;43.42;24.58;;;;;;;;;;5030074;28;20056;-57
2023/01/29 06:55:35;;;;;;;47.55;27.98;;;;;;;;;;5030512;28;20026;-58
2023/01/29 06:58:05;;;;;;;53.22;32.13;;;;;;;;;;5030053;28;20029;-58
2023/01/29 07:00:32;;;;;;;47.40;26.23;;;;;;;;;;5029950;28;20107;-58
2023/01/29 07:02:58;;;;;;;66.60;41.92;;;;;;;;;;5030160;28;20518;-58
2023/01/29 07:05:24;;;;;;;54.95;32.22;;;;;;;;;;5032049;28;20029;-58
2023/01/29 07:07:50;;;;;;;59.35;37.38;;;;;;;;;;5033678;28;20021;-59
2023/01/29 07:10:16;;;;;;;59.67;33.13;;;;;;;;;;5033583;28;20021;-63
2023/01/29 07:12:42;;;;;;;53.88;29.13;;;;;;;;;;5033545;28;20053;-56
2023/01/29 07:15:08;;;;;;;48.58;28.77;;;;;;;;;;5033617;28;20079;-56
2023/01/29 07:17:34;;;;;;;47.28;28.13;;;;;;;;;;5033614;28;20038;-57
2023/01/29 07:20:00;;;;;;;49.13;29.23;;;;;;;;;;5033573;28;20033;-57
2023/01/29 07:22:26;;;;;;;54.35;35.00;;;;;;;;;;5033376;28;20033;-58
2023/01/29 07:24:52;;;;;;;41.10;23.42;;;;;;;;;;5033364;28;20472;-58
2023/01/29 07:27:18;;;;;;;51.90;30.48;;;;;;;;;;5033640;28;20030;-59
2023/01/29 07:29:44;;;;;;;49.55;26.60;;;;;;;;;;5033388;28;20049;-58
2023/01/29 07:32:10;;;;;;;53.25;30.00;;;;;;;;;;5033349;28;20029;-58
2023/01/29 07:34:36;;;;;;;50.85;30.90;;;;;;;;;;5033647;28;20072;-58
2023/01/29 07:37:04;;;;;;;56.05;31.67;;;;;;;;;;5033351;28;20037;-58
2023/01/29 07:39:30;;;;;;;60.55;34.83;;;;;;;;;;5033141;28;20472;-59
2023/01/29 07:41:56;;;;;;;48.88;28.35;;;;;;;;;;5033422;28;20097;-58
2023/01/29 07:44:23;;;;;;;64.55;37.15;;;;;;;;;;5044309;28;20033;-63
2023/01/29 07:46:49;;;;;;;51.33;28.70;;;;;;;;;;5053097;28;20048;-64
2023/01/29 07:49:15;;;;;;;57.97;31.00;;;;;;;;;;5053094;28;20025;-59
2023/01/29 07:51:41;;;;;;;62.25;35.28;;;;;;;;;;5044281;28;20025;-58
2023/01/29 07:54:07;;;;;;;53.45;28.88;;;;;;;;;;5042014;28;20037;-57
2023/01/29 07:56:33;;;;;;;61.33;31.90;;;;;;;;;;5042338;28;20041;-60
2023/01/29 07:58:59;;;;;;;50.67;33.60;;;;;;;;;;5040137;28;20133;-58
2023/01/29 08:01:25;;;;;;;77.88;48.13;;;;;;;;;;5051868;28;20021;-59
2023/01/29 08:03:51;;;;;;;66.93;37.20;;;;;;;;;;5052723;28;20017;-57
2023/01/29 08:06:18;;;;;;;42.45;24.63;;;;;;;;;;5038759;28;20438;-58
2023/01/29 08:08:44;;;;;;;65.38;36.63;;;;;;;;;;5032674;28;20029;-61
2023/01/29 08:11:10;;;;;;;50.72;30.63;;;;;;;;;;5032791;28;20116;-62
2023/01/29 08:13:36;;;;;;;61.90;43.33;;;;;;;;;;5032848;28;20475;-58
2023/01/29 08:16:03;;;;;;;54.63;31.17;;;;;;;;;;5032515;28;20111;-64
2023/01/29 08:18:30;;;;;;;53.20;28.90;;;;;;;;;;5032735;28;20100;-64
2023/01/29 08:21:00;;;;;;;52.70;28.48;;;;;;;;;;5032773;28;20064;-64
2023/01/29 08:23:26;;;;;;;45.13;26.13;;;;;;;;;;5040653;28;20021;-59
2023/01/29 08:25:52;;;;;;;65.97;37.17;;;;;;;;;;5044909;28;20493;-58
2023/01/29 08:28:18;;;;;;;46.28;25.02;;;;;;;;;;5052461;28;20018;-59
2023/01/29 08:30:44;;;;;;;59.55;32.17;;;;;;;;;;5052330;28;20100;-58
2023/01/29 08:33:10;;;;;;;75.70;43.95;;;;;;;;;;5051560;28;20403;-57
2023/01/29 08:35:37;;;;;;;53.10;30.98;;;;;;;;;;5034317;28;20072;-62
2023/01/29 08:38:04;;;;;;;64.10;39.03;;;;;;;;;;5032080;28;20018;-67
2023/01/29 08:40:32;;;;;;;48.00;24.02;;;;;;;;;;5032415;28;20032;-62
2023/01/29 08:43:02;;;;;;;71.35;40.83;;;;;;;;;;5032283;28;20025;-58
2023/01/29 08:45:28;;;;;;;50.25;28.50;;;;;;;;;;5032537;28;20053;-64
2023/01/29 08:47:54;;;;;;;90.97;55.88;;;;;;;;;;5050257;28;20052;-58
2023/01/29 08:50:21;;;;;;;46.58;28.88;;;;;;;;;;5052077;28;20035;-62
2023/01/29 08:52:47;;;;;;;68.45;42.72;;;;;;;;;;5051861;28;20382;-59
2023/01/29 08:55:13;;;;;;;44.53;27.67;;;;;;;;;;5051701;28;20501;-65
2023/01/29 08:57:39;;;;;;;49.03;30.92;;;;;;;;;;5051837;28;20060;-58
2023/01/29 09:00:06;;;;;;;45.78;25.95;;;;;;;;;;5051999;28;20059;-57
2023/01/29 09:02:32;;;;;;;45.20;27.90;;;;;;;;;;5051661;28;20029;-58
2023/01/29 09:04:58;;;;;;;47.00;32.28;;;;;;;;;;5051868;28;20047;-56
2023/01/29 09:07:24;;;;;;;44.00;24.27;;;;;;;;;;5053794;28;20037;-62
2023/01/29 09:09:54;;;;;;;34.95;22.38;;;;;;;;;;5053708;28;20474;-62
2023/01/29 09:12:20;;;;;;;45.22;25.48;;;;;;;;;;5051459;28;20499;-63
2023/01/29 09:14:46;;;;;;;41.20;23.80;;;;;;;;;;5051676;28;20032;-57
2023/01/29 09:17:12;;;;;;;40.45;24.70;;;;;;;;;;5051414;28;20062;-58
2023/01/29 09:19:38;;;;;;;45.25;24.30;;;;;;;;;;5051727;28;20017;-59
2023/01/29 09:22:04;;;;;;;47.40;24.40;;;;;;;;;;5051267;28;20079;-60
2023/01/29 09:24:31;;;;;;;38.35;21.02;;;;;;;;;;5051653;28;20546;-58
2023/01/29 09:26:57;;;;;;;39.70;23.23;;;;;;;;;;5051409;28;20059;-56
2023/01/29 09:29:23;;;;;;;40.40;21.13;;;;;;;;;;5050950;28;20467;-58
2023/01/29 09:31:49;;;;;;;35.00;22.20;;;;;;;;;;5051281;28;20033;-59
2023/01/29 09:34:15;;;;;;;76.03;44.83;;;;;;;;;;5051370;28;20092;-58
2023/01/29 09:36:41;;;;;;;51.90;26.92;;;;;;;;;;5050913;28;20219;-58
2023/01/29 09:39:07;;;;;;;65.97;37.88;;;77.40;2227.20;;;;;;5050976;28;20025;-58
2023/01/29 09:41:51;;;;;;;51.15;26.65;;;77.40;2227.20;;;;;;5050953;28;20037;-59
2023/01/29 09:44:36;;;;;;;38.67;23.30;;;77.40;2227.20;;;;;;5048391;28;20057;-57
2023/01/29 09:47:06;;;;;;;47.90;26.33;;;77.40;2227.20;;;;;;5048435;28;20491;-62
2023/01/29 09:49:45;;;;;;;36.97;21.15;;;77.40;2227.20;;;;;;5048568;28;20021;-58
2023/01/29 09:52:19;;;;;;;42.75;22.00;;;77.50;2227.20;;;;;;5048652;28;20033;-59
2023/01/29 09:55:04;;;;;;;42.28;23.30;;;77.60;2227.20;;;;;;5048751;28;20145;-59
2023/01/29 09:57:55;;;;;;;40.88;22.85;;;77.70;2227.20;;;;;;5048102;28;20047;-58
2023/01/29 10:00:46;;;;;;;52.10;28.15;;;77.50;2227.20;;;;;;5058191;28;20535;-58
2023/01/29 10:03:28;;;;;;;48.08;28.48;;;77.50;2227.20;;;;;;5068413;28;20044;-66
2023/01/29 10:06:08;;;;;;;38.45;23.42;;;102.40;2227.20;;;;;;5068598;28;20028;-57
2023/01/29 10:08:46;;;;;;;42.58;27.08;;;77.60;2227.20;;;;;;5067963;28;20130;-57
2023/01/29 10:11:40;;;;;;;49.28;32.80;;;77.60;2227.20;;;;;;5065213;28;20036;-60
2023/01/29 10:14:36;;;;;;;47.22;28.45;;;77.60;2227.20;;;;;;5067275;28;20048;-56
2023/01/29 10:17:23;;;;;;;47.60;24.83;;;77.60;2227.20;;;;;;5064011;28;20102;-62
2023/01/29 10:19:53;;;;;;;44.60;25.67;;;77.60;2227.20;;;;;;5062020;28;20445;-62
2023/01/29 10:22:44;;;;;;;52.90;26.98;;;77.50;2227.20;;;;;;5065788;28;20024;-56
2023/01/29 10:25:16;;;;;;;44.90;29.40;;;77.50;2227.20;;;;;;5069415;28;20502;-60
2023/01/29 10:27:49;;;;;;;40.85;24.30;;;77.70;2227.20;;;;;;5070440;28;20032;-59
2023/01/29 10:30:21;;;;;;;46.95;26.42;;;77.70;2227.20;;;;;;5070691;28;20025;-60
2023/01/29 10:32:48;;;;;;;47.90;24.80;;;77.70;2227.20;;;;;;5070531;28;20032;-61
2023/01/29 10:35:38;;;;;;;51.63;30.02;;;77.50;2227.20;;;;;;5070376;28;20056;-58
2023/01/29 10:38:37;;;;;;;43.00;23.95;;;77.60;2227.20;;;;;;5070261;28;20078;-61
2023/01/29 10:41:03;;;;;;;39.90;23.10;;;77.60;2227.20;;;;;;5073613;28;20107;-60
2023/01/29 10:43:43;;;;;;;41.95;23.60;;;77.70;2227.20;;;;;;5074729;28;20052;-61
2023/01/29 10:46:42;;;;;;;42.75;24.63;;;77.70;2227.20;;;;;;5071304;28;20149;-59
2023/01/29 10:49:45;;;;;;;43.00;23.65;;;102.40;2227.20;;;;;;5054367;28;20555;-61
2023/01/29 10:52:29;;;;;;;41.45;23.45;;;77.60;2227.20;;;;;;5054117;28;20029;-61
2023/01/29 10:55:29;;;;;;;40.53;24.05;;;77.70;2227.20;;;;;;5054074;28;20060;-60
2023/01/29 10:58:14;;;;;;;41.25;24.27;;;102.40;2227.20;;;;;;5052129;28;20037;-61
2023/01/29 11:00:41;;;;;;;50.63;29.02;;;102.40;2227.20;;;;;;5052063;28;20548;-60
2023/01/29 11:03:22;;;;;;;56.08;29.75;;;102.50;2227.20;;;;;;5051787;28;20033;-62
2023/01/29 11:06:25;;;;;;;459.60;317.48;;;102.50;2227.20;;;;;;5051956;28;20031;-61
2023/01/29 11:09:23;;;;;;;64.20;38.92;;;102.40;2227.20;;;;;;4989400;28;20046;-60
2023/01/29 11:11:55;;;;;;;51.97;29.20;;;102.50;2227.20;;;;;;4986431;28;20034;-60
2023/01/29 11:14:28;;;;;;;50.60;25.90;;;102.40;2227.20;;;;;;4989851;28;20072;-60
2023/01/29 11:16:54;;;;;;;36.38;19.48;;;102.50;2227.20;;;;;;4989859;28;20089;-59
2023/01/29 11:19:38;;;;;;;48.30;27.00;;;102.50;2227.20;;;;;;4989704;28;20137;-60
2023/01/29 11:22:10;;;;;;;56.33;28.73;;;77.70;2227.20;;;;;;4989000;28;20027;-61
2023/01/29 11:24:36;;;;;;;59.70;37.08;;;77.70;2227.20;;;;;;4989742;28;20423;-60
2023/01/29 11:27:24;;;;;;;47.33;30.52;;;102.40;2227.20;;;;;;4989557;28;20034;-59
2023/01/29 11:29:51;;;;;;;49.10;25.50;;;77.70;2227.20;;;;;;4989593;28;20116;-59
2023/01/29 11:32:24;;;;;;;49.42;26.13;;;102.40;2227.20;;;;;;4989552;28;20042;-59
2023/01/29 11:35:18;;;;;;;48.83;26.05;;;102.50;2227.20;;;;;;4989070;28;20780;-60
2023/01/29 11:37:45;;;;;;;50.45;30.30;;;102.50;2227.20;;;;;;4989379;28;20168;-60
2023/01/29 11:40:33;;;;;;;41.05;22.23;;;102.40;2227.20;;;;;;4989343;28;20081;-60
2023/01/29 11:43:18;;;;;;;44.85;25.45;;;102.50;2227.20;;;;;;4989329;28;20080;-61
2023/01/29 11:45:44;;;;;;;39.25;22.77;;;102.50;2227.20;;;;;;5022655;28;20497;-60
2023/01/29 11:48:15;;;;;;;44.90;25.15;;;102.40;2227.20;;;;;;5050616;28;20045;-60
2023/01/29 11:50:42;;;;;;;60.88;33.13;;;77.70;2227.20;;;;;;5050459;28;20021;-60
2023/01/29 11:53:32;;;;;;;86.65;50.70;;;102.40;2227.20;;;;;;5050918;28;20037;-60
2023/01/29 11:55:58;;;;;;;52.08;30.13;;;102.60;2227.20;;;;;;5050633;28;20033;-60
2023/01/29 11:58:31;;;;;;;52.38;31.48;;;102.60;2227.20;;;;;;5050926;28;20025;-61
2023/01/29 12:00:57;;;;;;;60.00;35.97;;;102.70;2227.20;;;;;;5050492;28;20029;-61
2023/01/29 12:03:51;;;;;;;55.03;31.73;;;102.80;2227.20;;;;;;5050692;28;20066;-60
2023/01/29 12:06:19;;;;;;;32.95;21.55;;;102.80;2227.20;;;;;;5050576;28;20032;-61
2023/01/29 12:08:58;;;;;;;44.63;24.33;;;102.70;2227.20;;;;;;5050922;28;20080;-60
2023/01/29 12:11:32;;;;;;;44.65;25.15;;;102.70;2227.20;;;;;;5050534;28;20060;-61
2023/01/29 12:14:20;;;;;;;46.08;22.73;;;102.60;2227.20;;;;;;5050309;28;20483;-61
2023/01/29 12:16:58;;;;;;;45.92;28.48;;;102.40;2227.20;;;;;;5050626;28;20032;-60
2023/01/29 12:19:36;;;;;;;55.80;32.03;;;102.40;2227.20;;;;;;5050392;28;20047;-61
2023/01/29 12:22:21;;;;;;;50.10;26.77;;;102.50;2227.20;;;;;;5050283;28;20107;-62
2023/01/29 12:25:24;;;;;;;52.55;31.45;;;102.50;2227.20;;;;;;5033574;28;20067;-61
2023/01/29 12:28:27;;;;;;;75.40;40.90;;;77.70;2227.20;;;;;;4988076;28;20109;-60
2023/01/29 12:30:52;;;;;;;50.60;28.30;;;77.70;2227.20;;;;;;4988531;28;20127;-60
2023/01/29 12:33:45;;;;;;;74.80;37.25;;;77.70;2227.20;;;;;;4988618;28;20031;-61
2023/01/29 12:36:23;;;;;;;93.72;49.05;;;102.40;2227.20;;;;;;4988398;28;20050;-60
2023/01/29 12:38:49;;;;;;;110.85;60.70;;;77.70;2227.20;;;;;;4988388;28;20743;-60
2023/01/29 12:42:02;;;;;;;144.45;88.57;;;77.70;2227.20;;;;;;4988399;28;20070;-60
2023/01/29 12:44:34;;;;;;;384.20;221.63;;;102.50;2227.20;;;;;;4968958;28;20034;-61
2023/01/29 12:47:02;;;;;;;89.55;48.85;;;102.50;2227.20;;;;;;4977943;28;20053;-60
2023/01/29 12:49:32;;;;;;;87.05;48.50;;;102.50;2227.20;;;;;;4988440;28;20427;-61
2023/01/29 12:52:21;;;;;;;248.68;143.00;;;102.40;2227.20;;;;;;4988158;28;20046;-61
2023/01/29 12:54:55;;;;;;;105.22;62.25;;;102.40;2227.20;;;;;;4968280;28;20034;-61
2023/01/29 12:57:44;;;;;;;69.78;37.55;;;77.70;2227.20;;;;;;4968336;28;20579;-61
2023/01/29 13:00:19;;;;;;;58.42;35.55;;;77.70;2227.20;;;;;;4968602;28;20640;-61
2023/01/29 13:03:15;;;;;;;57.20;33.20;;;77.70;2227.20;;;;;;4967721;28;20421;-60
2023/01/29 13:05:48;;;;;;;58.65;26.20;;;77.70;2227.20;;;;;;4987954;28;20122;-60
2023/01/29 13:08:52;;;;;;;61.17;35.58;;;77.70;2227.20;;;;;;4987639;28;20117;-59
2023/01/29 13:11:26;;;;;;;59.70;32.78;;;77.60;2227.20;;;;;;4986422;28;20026;-61
2023/01/29 13:14:00;;;;;;;69.32;37.00;;;102.40;2227.20;;;;;;4978491;28;20069;-59
2023/01/29 13:16:32;;;;;;;61.50;31.10;;;102.50;2227.20;;;;;;4968395;28;20363;-61
2023/01/29 13:18:59;;;;;;;58.78;30.67;;;102.50;2227.20;;;;;;4968112;28;20031;-59
2023/01/29 13:21:38;;;;;;;55.88;33.00;;;102.50;2227.20;;;;;;4977303;28;20150;-61
2023/01/29 13:24:11;;;;;;;60.35;28.88;;;102.60;2227.20;;;;;;4987542;28;20042;-60
2023/01/29 13:26:39;;;;;;;60.45;32.97;;;102.60;2227.20;;;;;;4987590;28;20042;-59
2023/01/29 13:29:05;;;;;;;61.53;32.10;;;102.70;2227.20;;;;;;4987683;28;20117;-60
2023/01/29 13:31:35;;;;;;;64.90;35.17;;;102.80;2227.20;;;;;;5008312;28;20411;-60
2023/01/29 13:34:20;;;;;;;60.03;32.80;;;102.70;2227.20;;;;;;5048620;28;20033;-60
2023/01/29 13:36:58;;;;;;;64.03;34.80;;;102.70;2227.20;;;;;;5049283;28;20654;-60